sensor_id;sensor_type;location;lat;lon;timestamp;temperature;humidity
8633;DHT22;4354;49.832;10.746;2023-04-15T00:00:56;3.90;12.30
8633;DHT22;4354;49.832;10.746;2023-04-15T00:03:24;3.90;12.00
8633;DHT22;4354;49.832;10.746;2023-04-15T00:05:51;3.90;4.90
8633;DHT22;4354;49.832;10.746;2023-04-15T00:08:18;3.80;5.70
8633;DHT22;4354;49.832;10.746;2023-04-15T00:10:46;3.80;11.50
8633;DHT22;4354;49.832;10.746;2023-04-15T00:13:12;3.80;15.00
8633;DHT22;4354;49.832;10.746;2023-04-15T00:15:39;3.80;9.50
8633;DHT22;4354;49.832;10.746;2023-04-15T00:18:06;3.80;9.70
8633;DHT22;4354;49.832;10.746;2023-04-15T00:20:34;3.80;13.70
8633;DHT22;4354;49.832;10.746;2023-04-15T00:23:01;3.80;15.30
8633;DHT22;4354;49.832;10.746;2023-04-15T00:25:30;3.80;16.80
8633;DHT22;4354;49.832;10.746;2023-04-15T00:27:57;3.70;14.90
8633;DHT22;4354;49.832;10.746;2023-04-15T00:30:24;3.70;16.60
8633;DHT22;4354;49.832;10.746;2023-04-15T00:32:52;3.80;21.10
8633;DHT22;4354;49.832;10.746;2023-04-15T00:35:19;3.80;22.20
8633;DHT22;4354;49.832;10.746;2023-04-15T00:37:46;3.80;21.10
8633;DHT22;4354;49.832;10.746;2023-04-15T00:40:13;3.80;20.40
8633;DHT22;4354;49.832;10.746;2023-04-15T00:42:41;3.80;16.50
8633;DHT22;4354;49.832;10.746;2023-04-15T00:45:09;3.80;12.10
8633;DHT22;4354;49.832;10.746;2023-04-15T00:47:36;3.90;8.10
8633;DHT22;4354;49.832;10.746;2023-04-15T00:50:05;3.90;6.50
8633;DHT22;4354;49.832;10.746;2023-04-15T00:52:32;3.90;6.40
8633;DHT22;4354;49.832;10.746;2023-04-15T00:54:59;3.90;1.20
8633;DHT22;4354;49.832;10.746;2023-04-15T00:57:27;3.90;1.00
8633;DHT22;4354;49.832;10.746;2023-04-15T00:59:55;3.90;1.00
8633;DHT22;4354;49.832;10.746;2023-04-15T01:02:23;4.00;1.00
8633;DHT22;4354;49.832;10.746;2023-04-15T01:04:50;4.00;1.00
8633;DHT22;4354;49.832;10.746;2023-04-15T01:07:17;4.00;1.00
8633;DHT22;4354;49.832;10.746;2023-04-15T01:09:44;4.00;1.00
8633;DHT22;4354;49.832;10.746;2023-04-15T01:12:12;4.00;1.00
8633;DHT22;4354;49.832;10.746;2023-04-15T01:14:41;4.00;1.00
8633;DHT22;4354;49.832;10.746;2023-04-15T01:17:08;4.00;1.00
8633;DHT22;4354;49.832;10.746;2023-04-15T01:19:35;4.00;1.00
8633;DHT22;4354;49.832;10.746;2023-04-15T01:22:03;4.00;3.50
8633;DHT22;4354;49.832;10.746;2023-04-15T01:24:31;4.10;1.00
8633;DHT22;4354;49.832;10.746;2023-04-15T01:27:01;4.10;3.90
8633;DHT22;4354;49.832;10.746;2023-04-15T01:29:30;4.10;1.00
8633;DHT22;4354;49.832;10.746;2023-04-15T01:31:58;4.20;1.00
8633;DHT22;4354;49.832;10.746;2023-04-15T01:34:24;4.20;1.00
8633;DHT22;4354;49.832;10.746;2023-04-15T01:36:51;4.20;1.70
8633;DHT22;4354;49.832;10.746;2023-04-15T01:39:18;4.30;1.00
8633;DHT22;4354;49.832;10.746;2023-04-15T01:41:45;4.30;1.00
8633;DHT22;4354;49.832;10.746;2023-04-15T01:44:12;4.30;1.00
8633;DHT22;4354;49.832;10.746;2023-04-15T01:46:38;4.40;1.00
8633;DHT22;4354;49.832;10.746;2023-04-15T01:49:05;4.30;1.00
8633;DHT22;4354;49.832;10.746;2023-04-15T01:51:33;4.40;1.00
8633;DHT22;4354;49.832;10.746;2023-04-15T01:53:59;4.40;1.00
8633;DHT22;4354;49.832;10.746;2023-04-15T01:56:27;4.40;1.00
8633;DHT22;4354;49.832;10.746;2023-04-15T01:58:53;4.40;1.00
8633;DHT22;4354;49.832;10.746;2023-04-15T02:01:20;4.40;1.00
8633;DHT22;4354;49.832;10.746;2023-04-15T02:03:47;4.40;1.00
8633;DHT22;4354;49.832;10.746;2023-04-15T02:06:15;4.40;1.00
8633;DHT22;4354;49.832;10.746;2023-04-15T02:08:41;4.50;1.00
8633;DHT22;4354;49.832;10.746;2023-04-15T02:11:08;4.50;1.00
8633;DHT22;4354;49.832;10.746;2023-04-15T02:13:35;4.50;1.00
8633;DHT22;4354;49.832;10.746;2023-04-15T02:16:02;4.50;1.00
8633;DHT22;4354;49.832;10.746;2023-04-15T02:18:29;4.50;1.00
8633;DHT22;4354;49.832;10.746;2023-04-15T02:20:56;4.50;1.00
8633;DHT22;4354;49.832;10.746;2023-04-15T02:23:24;4.50;1.00
8633;DHT22;4354;49.832;10.746;2023-04-15T02:25:51;4.50;1.00
8633;DHT22;4354;49.832;10.746;2023-04-15T02:28:20;4.60;1.00
8633;DHT22;4354;49.832;10.746;2023-04-15T02:30:50;4.60;1.00
8633;DHT22;4354;49.832;10.746;2023-04-15T02:33:19;4.60;1.00
8633;DHT22;4354;49.832;10.746;2023-04-15T02:35:46;4.60;1.00
8633;DHT22;4354;49.832;10.746;2023-04-15T02:38:13;4.60;1.00
8633;DHT22;4354;49.832;10.746;2023-04-15T02:40:42;4.50;1.00
8633;DHT22;4354;49.832;10.746;2023-04-15T02:43:09;4.60;1.00
8633;DHT22;4354;49.832;10.746;2023-04-15T02:45:36;4.60;1.00
8633;DHT22;4354;49.832;10.746;2023-04-15T02:48:02;4.60;1.00
8633;DHT22;4354;49.832;10.746;2023-04-15T02:50:32;4.60;1.00
8633;DHT22;4354;49.832;10.746;2023-04-15T02:52:59;4.60;1.00
8633;DHT22;4354;49.832;10.746;2023-04-15T02:55:27;4.60;1.00
8633;DHT22;4354;49.832;10.746;2023-04-15T02:57:54;4.60;1.00
8633;DHT22;4354;49.832;10.746;2023-04-15T03:00:21;4.60;2.20
8633;DHT22;4354;49.832;10.746;2023-04-15T03:02:56;4.70;1.50
8633;DHT22;4354;49.832;10.746;2023-04-15T03:05:23;4.60;1.00
8633;DHT22;4354;49.832;10.746;2023-04-15T03:07:52;4.60;1.00
8633;DHT22;4354;49.832;10.746;2023-04-15T03:10:20;4.60;1.00
8633;DHT22;4354;49.832;10.746;2023-04-15T03:12:47;4.70;5.30
8633;DHT22;4354;49.832;10.746;2023-04-15T03:15:14;4.70;6.20
8633;DHT22;4354;49.832;10.746;2023-04-15T03:17:41;4.70;1.00
8633;DHT22;4354;49.832;10.746;2023-04-15T03:20:08;4.70;1.00
8633;DHT22;4354;49.832;10.746;2023-04-15T03:22:37;4.70;2.40
8633;DHT22;4354;49.832;10.746;2023-04-15T03:25:04;4.70;3.70
8633;DHT22;4354;49.832;10.746;2023-04-15T03:27:31;4.60;4.40
8633;DHT22;4354;49.832;10.746;2023-04-15T03:29:58;4.70;5.20
8633;DHT22;4354;49.832;10.746;2023-04-15T03:32:25;4.70;9.60
8633;DHT22;4354;49.832;10.746;2023-04-15T03:34:52;4.70;9.30
8633;DHT22;4354;49.832;10.746;2023-04-15T03:37:19;4.70;10.80
8633;DHT22;4354;49.832;10.746;2023-04-15T03:39:46;4.70;14.60
8633;DHT22;4354;49.832;10.746;2023-04-15T03:42:12;4.80;10.50
8633;DHT22;4354;49.832;10.746;2023-04-15T03:44:40;4.70;10.10
8633;DHT22;4354;49.832;10.746;2023-04-15T03:47:07;4.70;15.60
8633;DHT22;4354;49.832;10.746;2023-04-15T03:49:35;4.80;15.10
8633;DHT22;4354;49.832;10.746;2023-04-15T03:52:02;4.80;12.90
8633;DHT22;4354;49.832;10.746;2023-04-15T03:54:29;4.70;20.30
8633;DHT22;4354;49.832;10.746;2023-04-15T03:56:56;4.70;24.10
8633;DHT22;4354;49.832;10.746;2023-04-15T03:59:23;4.80;26.80
8633;DHT22;4354;49.832;10.746;2023-04-15T04:01:49;4.80;27.40
8633;DHT22;4354;49.832;10.746;2023-04-15T04:04:17;4.70;27.00
8633;DHT22;4354;49.832;10.746;2023-04-15T04:06:43;4.80;30.30
8633;DHT22;4354;49.832;10.746;2023-04-15T04:09:10;4.70;28.80
8633;DHT22;4354;49.832;10.746;2023-04-15T04:11:37;4.80;30.30
8633;DHT22;4354;49.832;10.746;2023-04-15T04:14:04;4.80;34.60
8633;DHT22;4354;49.832;10.746;2023-04-15T04:16:31;4.70;41.50
8633;DHT22;4354;49.832;10.746;2023-04-15T04:18:57;4.80;42.90
8633;DHT22;4354;49.832;10.746;2023-04-15T04:21:24;4.80;40.80
8633;DHT22;4354;49.832;10.746;2023-04-15T04:23:52;4.80;40.50
8633;DHT22;4354;49.832;10.746;2023-04-15T04:26:19;4.80;35.80
8633;DHT22;4354;49.832;10.746;2023-04-15T04:28:46;4.80;43.70
8633;DHT22;4354;49.832;10.746;2023-04-15T04:31:13;4.90;41.20
8633;DHT22;4354;49.832;10.746;2023-04-15T04:33:40;4.80;38.20
8633;DHT22;4354;49.832;10.746;2023-04-15T04:36:07;4.90;35.50
8633;DHT22;4354;49.832;10.746;2023-04-15T04:38:36;4.90;33.90
8633;DHT22;4354;49.832;10.746;2023-04-15T04:41:03;4.90;30.00
8633;DHT22;4354;49.832;10.746;2023-04-15T04:43:30;4.90;29.20
8633;DHT22;4354;49.832;10.746;2023-04-15T04:45:56;5.00;28.30
8633;DHT22;4354;49.832;10.746;2023-04-15T04:48:23;5.00;30.00
8633;DHT22;4354;49.832;10.746;2023-04-15T04:50:50;5.00;25.50
8633;DHT22;4354;49.832;10.746;2023-04-15T04:53:17;5.10;26.70
8633;DHT22;4354;49.832;10.746;2023-04-15T04:55:44;5.10;21.60
8633;DHT22;4354;49.832;10.746;2023-04-15T04:58:11;5.10;20.10
8633;DHT22;4354;49.832;10.746;2023-04-15T05:00:39;5.20;19.60
8633;DHT22;4354;49.832;10.746;2023-04-15T05:03:06;5.20;10.60
8633;DHT22;4354;49.832;10.746;2023-04-15T05:05:33;5.30;9.80
8633;DHT22;4354;49.832;10.746;2023-04-15T05:08:02;5.40;8.00
8633;DHT22;4354;49.832;10.746;2023-04-15T05:10:29;5.40;5.00
8633;DHT22;4354;49.832;10.746;2023-04-15T05:12:56;5.40;1.00
8633;DHT22;4354;49.832;10.746;2023-04-15T05:15:23;5.50;1.00
8633;DHT22;4354;49.832;10.746;2023-04-15T05:17:50;5.50;1.00
8633;DHT22;4354;49.832;10.746;2023-04-15T05:20:17;5.60;1.00
8633;DHT22;4354;49.832;10.746;2023-04-15T05:22:44;5.70;1.00
8633;DHT22;4354;49.832;10.746;2023-04-15T05:25:11;5.70;1.00
8633;DHT22;4354;49.832;10.746;2023-04-15T05:27:38;5.80;1.00
8633;DHT22;4354;49.832;10.746;2023-04-15T05:30:05;5.90;1.00
8633;DHT22;4354;49.832;10.746;2023-04-15T05:32:32;5.90;1.00
8633;DHT22;4354;49.832;10.746;2023-04-15T05:34:59;5.90;1.00
8633;DHT22;4354;49.832;10.746;2023-04-15T05:37:26;6.00;1.00
8633;DHT22;4354;49.832;10.746;2023-04-15T05:39:53;6.10;1.00
8633;DHT22;4354;49.832;10.746;2023-04-15T05:42:19;6.10;1.00
8633;DHT22;4354;49.832;10.746;2023-04-15T05:44:46;6.10;1.00
8633;DHT22;4354;49.832;10.746;2023-04-15T05:47:13;6.10;1.00
8633;DHT22;4354;49.832;10.746;2023-04-15T05:49:40;6.20;1.00
8633;DHT22;4354;49.832;10.746;2023-04-15T05:52:07;6.30;1.00
8633;DHT22;4354;49.832;10.746;2023-04-15T05:54:33;6.30;1.00
8633;DHT22;4354;49.832;10.746;2023-04-15T05:57:00;6.40;1.00
8633;DHT22;4354;49.832;10.746;2023-04-15T05:59:28;6.60;1.00
8633;DHT22;4354;49.832;10.746;2023-04-15T06:01:55;6.70;1.00
8633;DHT22;4354;49.832;10.746;2023-04-15T06:04:22;6.80;1.00
8633;DHT22;4354;49.832;10.746;2023-04-15T06:06:48;6.90;1.00
8633;DHT22;4354;49.832;10.746;2023-04-15T06:09:15;7.00;1.00
8633;DHT22;4354;49.832;10.746;2023-04-15T06:11:42;7.10;1.00
8633;DHT22;4354;49.832;10.746;2023-04-15T06:14:09;7.10;1.00
8633;DHT22;4354;49.832;10.746;2023-04-15T06:16:36;7.20;1.00
8633;DHT22;4354;49.832;10.746;2023-04-15T06:19:03;7.10;1.00
8633;DHT22;4354;49.832;10.746;2023-04-15T06:21:30;7.10;1.00
8633;DHT22;4354;49.832;10.746;2023-04-15T06:23:58;7.20;1.00
8633;DHT22;4354;49.832;10.746;2023-04-15T06:26:27;7.20;1.00
8633;DHT22;4354;49.832;10.746;2023-04-15T06:28:54;7.20;1.00
8633;DHT22;4354;49.832;10.746;2023-04-15T06:31:21;7.30;1.00
8633;DHT22;4354;49.832;10.746;2023-04-15T06:33:48;7.30;1.00
8633;DHT22;4354;49.832;10.746;2023-04-15T06:36:16;7.40;1.00
8633;DHT22;4354;49.832;10.746;2023-04-15T06:38:44;7.50;1.00
8633;DHT22;4354;49.832;10.746;2023-04-15T06:41:11;7.60;1.00
8633;DHT22;4354;49.832;10.746;2023-04-15T06:43:38;7.70;1.00
8633;DHT22;4354;49.832;10.746;2023-04-15T06:46:05;7.80;1.00
8633;DHT22;4354;49.832;10.746;2023-04-15T06:48:32;7.70;1.00
8633;DHT22;4354;49.832;10.746;2023-04-15T06:50:59;7.70;1.00
8633;DHT22;4354;49.832;10.746;2023-04-15T06:53:26;7.70;1.00
8633;DHT22;4354;49.832;10.746;2023-04-15T06:55:53;7.70;1.00
8633;DHT22;4354;49.832;10.746;2023-04-15T06:58:21;7.60;1.00
8633;DHT22;4354;49.832;10.746;2023-04-15T07:00:48;7.60;1.00
8633;DHT22;4354;49.832;10.746;2023-04-15T07:03:15;7.50;1.00
8633;DHT22;4354;49.832;10.746;2023-04-15T07:05:42;7.50;1.00
8633;DHT22;4354;49.832;10.746;2023-04-15T07:08:09;7.50;1.00
8633;DHT22;4354;49.832;10.746;2023-04-15T07:10:35;7.50;1.00
8633;DHT22;4354;49.832;10.746;2023-04-15T07:13:03;7.40;1.00
8633;DHT22;4354;49.832;10.746;2023-04-15T07:15:30;7.40;1.00
8633;DHT22;4354;49.832;10.746;2023-04-15T07:17:56;7.30;1.00
8633;DHT22;4354;49.832;10.746;2023-04-15T07:20:23;7.40;1.00
8633;DHT22;4354;49.832;10.746;2023-04-15T07:22:50;7.40;1.00
8633;DHT22;4354;49.832;10.746;2023-04-15T07:25:17;7.40;1.00
8633;DHT22;4354;49.832;10.746;2023-04-15T07:27:44;7.40;1.00
8633;DHT22;4354;49.832;10.746;2023-04-15T07:30:11;7.50;1.00
8633;DHT22;4354;49.832;10.746;2023-04-15T07:32:39;7.50;1.00
8633;DHT22;4354;49.832;10.746;2023-04-15T07:35:06;7.50;1.00
8633;DHT22;4354;49.832;10.746;2023-04-15T07:37:34;7.50;1.00
8633;DHT22;4354;49.832;10.746;2023-04-15T07:40:01;7.60;1.00
8633;DHT22;4354;49.832;10.746;2023-04-15T07:42:30;7.60;1.00
8633;DHT22;4354;49.832;10.746;2023-04-15T07:44:57;7.70;1.00
8633;DHT22;4354;49.832;10.746;2023-04-15T07:47:23;7.60;1.00
8633;DHT22;4354;49.832;10.746;2023-04-15T07:49:51;7.60;1.00
8633;DHT22;4354;49.832;10.746;2023-04-15T07:52:18;7.70;1.00
8633;DHT22;4354;49.832;10.746;2023-04-15T07:54:45;7.60;1.00
8633;DHT22;4354;49.832;10.746;2023-04-15T07:57:12;7.70;1.00
8633;DHT22;4354;49.832;10.746;2023-04-15T07:59:39;7.70;1.00
8633;DHT22;4354;49.832;10.746;2023-04-15T08:02:06;7.70;1.00
8633;DHT22;4354;49.832;10.746;2023-04-15T08:04:34;7.60;1.00
8633;DHT22;4354;49.832;10.746;2023-04-15T08:07:01;7.80;1.00
8633;DHT22;4354;49.832;10.746;2023-04-15T08:09:28;7.80;1.00
8633;DHT22;4354;49.832;10.746;2023-04-15T08:11:55;7.90;1.00
8633;DHT22;4354;49.832;10.746;2023-04-15T08:14:23;8.00;1.00
8633;DHT22;4354;49.832;10.746;2023-04-15T08:16:50;8.20;1.00
8633;DHT22;4354;49.832;10.746;2023-04-15T08:19:17;8.30;1.00
8633;DHT22;4354;49.832;10.746;2023-04-15T08:21:43;8.40;1.00
8633;DHT22;4354;49.832;10.746;2023-04-15T08:24:11;8.60;1.00
8633;DHT22;4354;49.832;10.746;2023-04-15T08:26:39;8.50;99.90
8633;DHT22;4354;49.832;10.746;2023-04-15T08:29:06;8.60;1.00
8633;DHT22;4354;49.832;10.746;2023-04-15T08:31:33;8.70;1.00
8633;DHT22;4354;49.832;10.746;2023-04-15T08:34:03;8.70;99.90
8633;DHT22;4354;49.832;10.746;2023-04-15T08:36:30;8.70;1.00
8633;DHT22;4354;49.832;10.746;2023-04-15T08:38:58;8.70;1.00
8633;DHT22;4354;49.832;10.746;2023-04-15T08:41:51;8.90;1.00
8633;DHT22;4354;49.832;10.746;2023-04-15T08:44:17;8.70;99.90
8633;DHT22;4354;49.832;10.746;2023-04-15T08:46:44;8.60;1.00
8633;DHT22;4354;49.832;10.746;2023-04-15T08:49:11;8.70;99.90
8633;DHT22;4354;49.832;10.746;2023-04-15T08:51:41;8.60;99.90
8633;DHT22;4354;49.832;10.746;2023-04-15T08:54:10;8.50;99.90
8633;DHT22;4354;49.832;10.746;2023-04-15T08:56:38;8.40;99.90
8633;DHT22;4354;49.832;10.746;2023-04-15T08:59:05;8.20;1.00
8633;DHT22;4354;49.832;10.746;2023-04-15T09:01:32;8.10;99.90
8633;DHT22;4354;49.832;10.746;2023-04-15T09:04:01;8.10;1.00
8633;DHT22;4354;49.832;10.746;2023-04-15T09:06:28;8.20;1.00
8633;DHT22;4354;49.832;10.746;2023-04-15T09:08:55;8.20;1.00
8633;DHT22;4354;49.832;10.746;2023-04-15T09:11:23;8.10;99.90
8633;DHT22;4354;49.832;10.746;2023-04-15T09:13:50;8.00;1.00
8633;DHT22;4354;49.832;10.746;2023-04-15T09:16:17;7.90;1.00
8633;DHT22;4354;49.832;10.746;2023-04-15T09:18:44;7.80;1.00
8633;DHT22;4354;49.832;10.746;2023-04-15T09:21:13;7.60;1.00
8633;DHT22;4354;49.832;10.746;2023-04-15T09:23:54;7.70;1.00
8633;DHT22;4354;49.832;10.746;2023-04-15T09:26:32;7.70;1.00
8633;DHT22;4354;49.832;10.746;2023-04-15T09:29:06;7.80;1.00
8633;DHT22;4354;49.832;10.746;2023-04-15T09:31:35;7.90;1.00
8633;DHT22;4354;49.832;10.746;2023-04-15T09:34:02;8.00;1.00
8633;DHT22;4354;49.832;10.746;2023-04-15T09:39:12;8.20;18.30
8633;DHT22;4354;49.832;10.746;2023-04-15T09:41:39;8.30;1.00
8633;DHT22;4354;49.832;10.746;2023-04-15T09:44:06;8.50;93.90
8633;DHT22;4354;49.832;10.746;2023-04-15T09:46:43;8.60;1.00
8633;DHT22;4354;49.832;10.746;2023-04-15T09:49:11;8.70;99.90
8633;DHT22;4354;49.832;10.746;2023-04-15T09:51:38;8.90;99.90
8633;DHT22;4354;49.832;10.746;2023-04-15T09:54:05;8.90;1.00
8633;DHT22;4354;49.832;10.746;2023-04-15T09:56:38;9.10;99.90
8633;DHT22;4354;49.832;10.746;2023-04-15T09:59:08;9.40;1.00
8633;DHT22;4354;49.832;10.746;2023-04-15T10:01:35;9.60;1.00
8633;DHT22;4354;49.832;10.746;2023-04-15T10:04:03;9.80;99.90
8633;DHT22;4354;49.832;10.746;2023-04-15T10:06:31;10.00;1.00
8633;DHT22;4354;49.832;10.746;2023-04-15T10:08:58;9.90;99.90
8633;DHT22;4354;49.832;10.746;2023-04-15T10:11:29;9.90;1.00
8633;DHT22;4354;49.832;10.746;2023-04-15T10:13:57;9.90;26.80
8633;DHT22;4354;49.832;10.746;2023-04-15T10:16:26;9.70;1.00
8633;DHT22;4354;49.832;10.746;2023-04-15T10:18:55;9.60;99.90
8633;DHT22;4354;49.832;10.746;2023-04-15T10:21:22;9.60;1.00
8633;DHT22;4354;49.832;10.746;2023-04-15T10:23:49;9.50;99.90
8633;DHT22;4354;49.832;10.746;2023-04-15T10:26:17;9.40;1.00
8633;DHT22;4354;49.832;10.746;2023-04-15T10:28:44;9.40;1.00
8633;DHT22;4354;49.832;10.746;2023-04-15T10:31:13;9.10;14.50
8633;DHT22;4354;49.832;10.746;2023-04-15T10:33:45;9.10;1.00
8633;DHT22;4354;49.832;10.746;2023-04-15T10:36:13;9.00;1.00
8633;DHT22;4354;49.832;10.746;2023-04-15T10:38:44;8.80;1.00
8633;DHT22;4354;49.832;10.746;2023-04-15T10:41:19;8.70;1.00
8633;DHT22;4354;49.832;10.746;2023-04-15T10:43:48;8.90;99.90
8633;DHT22;4354;49.832;10.746;2023-04-15T10:46:41;9.00;56.40
8633;DHT22;4354;49.832;10.746;2023-04-15T10:49:24;9.20;1.00
8633;DHT22;4354;49.832;10.746;2023-04-15T10:51:54;9.30;99.90
8633;DHT22;4354;49.832;10.746;2023-04-15T11:02:47;9.70;99.90
8633;DHT22;4354;49.832;10.746;2023-04-15T11:05:16;9.70;99.90
8633;DHT22;4354;49.832;10.746;2023-04-15T11:07:47;10.00;1.00
8633;DHT22;4354;49.832;10.746;2023-04-15T11:12:44;10.40;56.80
8633;DHT22;4354;49.832;10.746;2023-04-15T11:15:38;10.40;1.00
8633;DHT22;4354;49.832;10.746;2023-04-15T11:18:20;10.50;1.00
8633;DHT22;4354;49.832;10.746;2023-04-15T11:20:50;10.80;1.00
8633;DHT22;4354;49.832;10.746;2023-04-15T11:23:18;10.70;99.90
8633;DHT22;4354;49.832;10.746;2023-04-15T11:25:45;10.70;99.90
8633;DHT22;4354;49.832;10.746;2023-04-15T11:28:15;10.70;1.00
8633;DHT22;4354;49.832;10.746;2023-04-15T11:30:41;10.60;1.00
8633;DHT22;4354;49.832;10.746;2023-04-15T11:33:11;10.50;1.00
8633;DHT22;4354;49.832;10.746;2023-04-15T11:35:42;10.40;1.00
8633;DHT22;4354;49.832;10.746;2023-04-15T11:38:11;10.20;1.00
8633;DHT22;4354;49.832;10.746;2023-04-15T11:40:39;10.30;1.00
8633;DHT22;4354;49.832;10.746;2023-04-15T11:43:18;9.90;39.10
8633;DHT22;4354;49.832;10.746;2023-04-15T11:45:58;10.00;99.90
8633;DHT22;4354;49.832;10.746;2023-04-15T11:48:32;9.90;1.00
8633;DHT22;4354;49.832;10.746;2023-04-15T11:51:04;10.00;99.90
8633;DHT22;4354;49.832;10.746;2023-04-15T11:53:47;10.20;1.00
8633;DHT22;4354;49.832;10.746;2023-04-15T11:56:24;10.50;99.90
8633;DHT22;4354;49.832;10.746;2023-04-15T11:58:53;10.60;99.90
8633;DHT22;4354;49.832;10.746;2023-04-15T12:01:33;11.10;1.00
8633;DHT22;4354;49.832;10.746;2023-04-15T12:04:01;10.70;1.00
8633;DHT22;4354;49.832;10.746;2023-04-15T12:06:33;10.80;1.00
8633;DHT22;4354;49.832;10.746;2023-04-15T12:09:21;10.90;1.00
8633;DHT22;4354;49.832;10.746;2023-04-15T12:11:49;11.10;99.90
8633;DHT22;4354;49.832;10.746;2023-04-15T12:14:26;11.40;1.00
8633;DHT22;4354;49.832;10.746;2023-04-15T12:17:00;11.60;99.90
8633;DHT22;4354;49.832;10.746;2023-04-15T12:19:36;11.60;99.90
8633;DHT22;4354;49.832;10.746;2023-04-15T12:22:05;11.70;99.90
8633;DHT22;4354;49.832;10.746;2023-04-15T12:24:33;11.80;99.90
8633;DHT22;4354;49.832;10.746;2023-04-15T12:27:06;11.70;99.90
8633;DHT22;4354;49.832;10.746;2023-04-15T12:29:35;11.60;99.90
8633;DHT22;4354;49.832;10.746;2023-04-15T12:32:10;11.60;99.90
8633;DHT22;4354;49.832;10.746;2023-04-15T12:34:49;11.50;99.90
8633;DHT22;4354;49.832;10.746;2023-04-15T12:37:17;11.40;99.90
8633;DHT22;4354;49.832;10.746;2023-04-15T12:39:46;11.30;99.90
8633;DHT22;4354;49.832;10.746;2023-04-15T12:42:15;11.20;99.90
8633;DHT22;4354;49.832;10.746;2023-04-15T12:44:42;11.20;99.90
8633;DHT22;4354;49.832;10.746;2023-04-15T12:47:10;11.40;99.90
8633;DHT22;4354;49.832;10.746;2023-04-15T12:49:37;11.50;99.90
8633;DHT22;4354;49.832;10.746;2023-04-15T12:52:05;11.70;99.90
8633;DHT22;4354;49.832;10.746;2023-04-15T12:54:32;12.00;99.90
8633;DHT22;4354;49.832;10.746;2023-04-15T12:57:00;12.20;99.90
8633;DHT22;4354;49.832;10.746;2023-04-15T12:59:32;12.30;99.90
8633;DHT22;4354;49.832;10.746;2023-04-15T13:01:58;12.30;99.90
8633;DHT22;4354;49.832;10.746;2023-04-15T13:04:26;12.20;99.90
8633;DHT22;4354;49.832;10.746;2023-04-15T13:06:56;12.10;99.90
8633;DHT22;4354;49.832;10.746;2023-04-15T13:09:26;11.90;99.90
8633;DHT22;4354;49.832;10.746;2023-04-15T13:11:53;11.70;99.90
8633;DHT22;4354;49.832;10.746;2023-04-15T13:14:20;11.50;99.90
8633;DHT22;4354;49.832;10.746;2023-04-15T13:16:47;11.30;99.90
8633;DHT22;4354;49.832;10.746;2023-04-15T13:19:14;11.10;99.90
8633;DHT22;4354;49.832;10.746;2023-04-15T13:21:41;11.00;99.90
8633;DHT22;4354;49.832;10.746;2023-04-15T13:24:08;10.80;99.90
8633;DHT22;4354;49.832;10.746;2023-04-15T13:26:35;10.60;99.90
8633;DHT22;4354;49.832;10.746;2023-04-15T13:29:02;10.40;99.90
8633;DHT22;4354;49.832;10.746;2023-04-15T13:31:28;10.40;99.90
8633;DHT22;4354;49.832;10.746;2023-04-15T13:33:56;10.30;99.90
8633;DHT22;4354;49.832;10.746;2023-04-15T13:36:23;10.30;1.00
8633;DHT22;4354;49.832;10.746;2023-04-15T13:38:50;10.20;1.00
8633;DHT22;4354;49.832;10.746;2023-04-15T13:41:17;10.10;6.20
8633;DHT22;4354;49.832;10.746;2023-04-15T13:43:45;9.90;99.90
8633;DHT22;4354;49.832;10.746;2023-04-15T13:46:13;9.80;1.00
8633;DHT22;4354;49.832;10.746;2023-04-15T13:48:40;9.70;1.00
8633;DHT22;4354;49.832;10.746;2023-04-15T13:51:07;9.60;1.00
8633;DHT22;4354;49.832;10.746;2023-04-15T13:53:34;9.50;99.90
8633;DHT22;4354;49.832;10.746;2023-04-15T13:56:06;9.50;1.00
8633;DHT22;4354;49.832;10.746;2023-04-15T13:58:33;9.40;1.00
8633;DHT22;4354;49.832;10.746;2023-04-15T14:01:00;9.40;1.00
8633;DHT22;4354;49.832;10.746;2023-04-15T14:03:30;9.30;1.00
8633;DHT22;4354;49.832;10.746;2023-04-15T14:05:57;9.30;99.90
8633;DHT22;4354;49.832;10.746;2023-04-15T14:08:24;9.30;35.50
8633;DHT22;4354;49.832;10.746;2023-04-15T14:10:51;9.30;99.90
8633;DHT22;4354;49.832;10.746;2023-04-15T14:13:18;9.20;99.90
8633;DHT22;4354;49.832;10.746;2023-04-15T14:15:45;9.20;99.90
8633;DHT22;4354;49.832;10.746;2023-04-15T14:18:12;9.20;99.90
8633;DHT22;4354;49.832;10.746;2023-04-15T14:20:39;9.20;99.90
8633;DHT22;4354;49.832;10.746;2023-04-15T14:23:06;9.10;99.90
8633;DHT22;4354;49.832;10.746;2023-04-15T14:25:33;9.00;99.90
8633;DHT22;4354;49.832;10.746;2023-04-15T14:28:00;9.10;99.90
8633;DHT22;4354;49.832;10.746;2023-04-15T14:30:27;9.10;99.90
8633;DHT22;4354;49.832;10.746;2023-04-15T14:32:54;9.10;99.90
8633;DHT22;4354;49.832;10.746;2023-04-15T14:35:21;9.10;99.90
8633;DHT22;4354;49.832;10.746;2023-04-15T14:37:50;9.00;99.90
8633;DHT22;4354;49.832;10.746;2023-04-15T14:40:16;9.00;99.90
8633;DHT22;4354;49.832;10.746;2023-04-15T14:42:43;9.00;99.90
8633;DHT22;4354;49.832;10.746;2023-04-15T14:45:12;9.00;99.90
8633;DHT22;4354;49.832;10.746;2023-04-15T14:47:38;9.10;99.90
8633;DHT22;4354;49.832;10.746;2023-04-15T14:50:06;9.10;99.90
8633;DHT22;4354;49.832;10.746;2023-04-15T14:52:32;9.10;99.90
8633;DHT22;4354;49.832;10.746;2023-04-15T14:55:11;9.10;99.90
8633;DHT22;4354;49.832;10.746;2023-04-15T14:57:39;9.10;99.90
8633;DHT22;4354;49.832;10.746;2023-04-15T15:00:07;9.20;99.90
8633;DHT22;4354;49.832;10.746;2023-04-15T15:02:36;9.20;99.90
8633;DHT22;4354;49.832;10.746;2023-04-15T15:05:06;9.30;99.90
8633;DHT22;4354;49.832;10.746;2023-04-15T15:07:36;9.30;99.90
8633;DHT22;4354;49.832;10.746;2023-04-15T15:10:03;9.40;99.90
8633;DHT22;4354;49.832;10.746;2023-04-15T15:12:31;9.40;99.90
8633;DHT22;4354;49.832;10.746;2023-04-15T15:14:58;9.50;99.90
8633;DHT22;4354;49.832;10.746;2023-04-15T15:17:27;9.50;99.90
8633;DHT22;4354;49.832;10.746;2023-04-15T15:19:54;9.60;99.90
8633;DHT22;4354;49.832;10.746;2023-04-15T15:22:20;9.60;99.90
8633;DHT22;4354;49.832;10.746;2023-04-15T15:24:47;9.60;99.90
8633;DHT22;4354;49.832;10.746;2023-04-15T15:27:14;9.60;99.90
8633;DHT22;4354;49.832;10.746;2023-04-15T15:29:41;9.50;99.90
8633;DHT22;4354;49.832;10.746;2023-04-15T15:32:08;9.50;99.90
8633;DHT22;4354;49.832;10.746;2023-04-15T15:34:35;9.50;99.90
8633;DHT22;4354;49.832;10.746;2023-04-15T15:37:01;9.40;99.90
8633;DHT22;4354;49.832;10.746;2023-04-15T15:39:28;9.40;99.90
8633;DHT22;4354;49.832;10.746;2023-04-15T15:41:55;9.40;99.90
8633;DHT22;4354;49.832;10.746;2023-04-15T15:44:22;9.40;99.90
8633;DHT22;4354;49.832;10.746;2023-04-15T15:46:49;9.40;99.90
8633;DHT22;4354;49.832;10.746;2023-04-15T15:49:16;9.40;99.90
8633;DHT22;4354;49.832;10.746;2023-04-15T15:51:43;9.40;99.90
8633;DHT22;4354;49.832;10.746;2023-04-15T15:54:11;9.30;99.90
8633;DHT22;4354;49.832;10.746;2023-04-15T15:56:38;9.20;99.90
8633;DHT22;4354;49.832;10.746;2023-04-15T15:59:05;9.10;99.90
8633;DHT22;4354;49.832;10.746;2023-04-15T16:01:32;9.10;99.90
8633;DHT22;4354;49.832;10.746;2023-04-15T16:03:59;9.00;99.90
8633;DHT22;4354;49.832;10.746;2023-04-15T16:06:26;8.90;99.90
8633;DHT22;4354;49.832;10.746;2023-04-15T16:08:53;8.90;99.90
8633;DHT22;4354;49.832;10.746;2023-04-15T16:11:20;9.00;99.90
8633;DHT22;4354;49.832;10.746;2023-04-15T16:13:47;9.00;99.90
8633;DHT22;4354;49.832;10.746;2023-04-15T16:16:13;9.10;99.90
8633;DHT22;4354;49.832;10.746;2023-04-15T16:18:40;9.20;99.90
8633;DHT22;4354;49.832;10.746;2023-04-15T16:21:07;9.20;99.90
8633;DHT22;4354;49.832;10.746;2023-04-15T16:23:35;9.20;99.90
8633;DHT22;4354;49.832;10.746;2023-04-15T16:26:02;9.20;99.90